Felix-Klein-Gymnasium, Gttingen, 150m NN
Wetterdaten: aktuell Donnerstag, 20.01.2022 06:45
Datum Zeit Temp. A. Feuchte A. Luftdruck Regen Wind Richtung Richtung Sonnenschein Taupunkt Windchill Windben
20.01.2022 06:45 1,8 C 89 % 1016,7 hPa 0,0 mm 17,9 km/h (3 Bft) SO 127 0 min 0,2 C -2,7 C 41,8 km/h (6 Bft)
20.01.2022 06:30 3,2 C 88 % 1016,2 hPa 0,3 mm 10,2 km/h (2 Bft) O-NO 69 0 min 1,4 C 0,5 C 29,0 km/h (5 Bft)
20.01.2022 06:15 3,5 C 86 % 1016,1 hPa 0,0 mm 10,2 km/h (2 Bft) O-NO 72 0 min 1,4 C 0,8 C 25,7 km/h (4 Bft)
20.01.2022 06:00 3,4 C 86 % 1016,2 hPa 0,0 mm 8,9 km/h (2 Bft) O 86 0 min 1,3 C 1,0 C 24,1 km/h (4 Bft)
20.01.2022 05:45 3,4 C 87 % 1016,2 hPa 0,0 mm 12,0 km/h (2 Bft) O 90 0 min 1,4 C 0,3 C 29,0 km/h (5 Bft)
20.01.2022 05:30 3,3 C 89 % 1016,2 hPa 0,0 mm 12,0 km/h (2 Bft) O 81 0 min 1,7 C 0,2 C 37,0 km/h (5 Bft)
20.01.2022 05:15 3,1 C 90 % 1016,3 hPa 0,3 mm 8,6 km/h (2 Bft) O-SO 107 0 min 1,6 C 0,7 C 25,7 km/h (4 Bft)
20.01.2022 05:00 3,2 C 90 % 1016,3 hPa 0,3 mm 8,0 km/h (2 Bft) O-SO 112 0 min 1,7 C 1,0 C 25,7 km/h (4 Bft)
20.01.2022 04:45 3,4 C 88 % 1016,3 hPa 0,0 mm 8,1 km/h (2 Bft) O 84 0 min 1,6 C 1,2 C 22,5 km/h (4 Bft)
20.01.2022 04:30 3,4 C 88 % 1016,6 hPa 0,0 mm 4,6 km/h (1 Bft) NO 51 0 min 1,6 C 2,4 C 19,3 km/h (3 Bft)
20.01.2022 04:15 3,4 C 87 % 1016,8 hPa 0,0 mm 3,9 km/h (1 Bft) O 83 0 min 1,4 C 3,4 C 22,5 km/h (4 Bft)
20.01.2022 04:00 3,4 C 87 % 1017,1 hPa 0,0 mm 3,7 km/h (1 Bft) O 81 0 min 1,4 C 3,4 C 12,9 km/h (3 Bft)
20.01.2022 03:45 3,4 C 86 % 1017,3 hPa 0,0 mm 4,6 km/h (1 Bft) NO 46 0 min 1,3 C 2,4 C 24,1 km/h (4 Bft)
20.01.2022 03:30 3,4 C 86 % 1017,4 hPa 0,0 mm 8,7 km/h (2 Bft) O-NO 74 0 min 1,3 C 1,1 C 20,9 km/h (4 Bft)
20.01.2022 03:15 3,4 C 86 % 1017,4 hPa 0,0 mm 9,8 km/h (2 Bft) O-NO 74 0 min 1,3 C 0,8 C 20,9 km/h (4 Bft)
20.01.2022 03:00 3,5 C 86 % 1017,5 hPa 0,0 mm 8,8 km/h (2 Bft) O-NO 59 0 min 1,4 C 1,2 C 25,7 km/h (4 Bft)
20.01.2022 02:45 3,5 C 86 % 1017,7 hPa 0,0 mm 7,9 km/h (2 Bft) O-NO 57 0 min 1,4 C 1,4 C 19,3 km/h (3 Bft)
20.01.2022 02:30 3,4 C 86 % 1017,7 hPa 0,0 mm 5,7 km/h (1 Bft) O-NO 73 0 min 1,3 C 2,0 C 17,7 km/h (3 Bft)
20.01.2022 02:15 3,4 C 86 % 1017,5 hPa 0,0 mm 5,7 km/h (1 Bft) O-NO 61 0 min 1,3 C 2,0 C 17,7 km/h (3 Bft)
20.01.2022 02:00 3,3 C 85 % 1017,4 hPa 0,0 mm 3,4 km/h (1 Bft) NO 54 0 min 1,0 C 3,3 C 12,9 km/h (3 Bft)
20.01.2022 01:45 3,5 C 85 % 1017,4 hPa 0,0 mm 7,0 km/h (2 Bft) O-NO 77 0 min 1,2 C 1,7 C 17,7 km/h (3 Bft)
20.01.2022 01:30 3,7 C 85 % 1017,5 hPa 0,0 mm 9,6 km/h (2 Bft) O-NO 75 0 min 1,4 C 1,2 C 17,7 km/h (3 Bft)
20.01.2022 01:15 3,9 C 85 % 1017,3 hPa 0,0 mm 11,3 km/h (2 Bft) O 81 0 min 1,6 C 1,1 C 22,5 km/h (4 Bft)
20.01.2022 01:00 4,2 C 87 % 1017,3 hPa 0,0 mm 14,4 km/h (3 Bft) O 82 0 min 2,2 C 0,9 C 24,1 km/h (4 Bft)
20.01.2022 00:45 4,3 C 89 % 1017,2 hPa 0,0 mm 19,0 km/h (3 Bft) O 84 0 min 2,7 C 0,3 C 35,4 km/h (5 Bft)
20.01.2022 00:30 4,2 C 90 % 1017,1 hPa 0,0 mm 19,1 km/h (3 Bft) NO 56 0 min 2,7 C 0,2 C 37,0 km/h (5 Bft)
20.01.2022 00:15 4,2 C 92 % 1016,8 hPa 0,0 mm 18,4 km/h (3 Bft) NO 47 0 min 3,0 C 0,3 C 32,2 km/h (5 Bft)
20.01.2022 00:00 4,1 C 93 % 1016,6 hPa 0,0 mm 16,0 km/h (3 Bft) O 80 0 min 3,1 C 0,5 C 29,0 km/h (5 Bft)
19.01.2022 23:45 3,8 C 94 % 1016,7 hPa 0,0 mm 9,7 km/h (2 Bft) O-NO 67 0 min 2,9 C 1,3 C 25,7 km/h (4 Bft)
19.01.2022 23:30 3,3 C 94 % 1016,5 hPa 0,3 mm 4,8 km/h (1 Bft) NO 45 0 min 2,4 C 2,2 C 20,9 km/h (4 Bft)
19.01.2022 23:15 3,0 C 94 % 1016,4 hPa 0,0 mm 3,2 km/h (1 Bft) N 360 0 min 2,1 C 3,0 C 12,9 km/h (3 Bft)
19.01.2022 23:00 2,8 C 93 % 1016,5 hPa 0,0 mm 3,9 km/h (1 Bft) NO 51 0 min 1,8 C 2,8 C 17,7 km/h (3 Bft)
19.01.2022 22:45 2,7 C 93 % 1016,5 hPa 0,3 mm 4,3 km/h (1 Bft) N 360 0 min 1,7 C 2,7 C 16,1 km/h (3 Bft)
19.01.2022 22:30 2,6 C 93 % 1016,5 hPa 0,3 mm 3,6 km/h (1 Bft) N-NW 347 0 min 1,6 C 2,6 C 17,7 km/h (3 Bft)
19.01.2022 22:15 2,5 C 92 % 1016,5 hPa 0,0 mm 5,8 km/h (2 Bft) N 360 0 min 1,3 C 0,9 C 17,7 km/h (3 Bft)
19.01.2022 22:00 2,5 C 92 % 1016,5 hPa 0,0 mm 7,3 km/h (2 Bft) N-NW 340 0 min 1,3 C 0,4 C 19,3 km/h (3 Bft)
19.01.2022 21:45 2,4 C 92 % 1016,6 hPa 0,0 mm 4,9 km/h (1 Bft) N-NW 344 0 min 1,2 C 1,2 C 16,1 km/h (3 Bft)
19.01.2022 21:30 2,3 C 92 % 1016,5 hPa 0,0 mm 5,3 km/h (1 Bft) N 9 0 min 1,1 C 0,9 C 22,5 km/h (4 Bft)
19.01.2022 21:15 2,3 C 92 % 1016,4 hPa 0,0 mm 3,9 km/h (1 Bft) N 5 0 min 1,1 C 2,3 C 16,1 km/h (3 Bft)
19.01.2022 21:00 2,3 C 91 % 1016,3 hPa 0,0 mm 5,1 km/h (1 Bft) N-NW 338 0 min 1,0 C 1,0 C 16,1 km/h (3 Bft)
19.01.2022 20:45 2,4 C 91 % 1016,3 hPa 0,0 mm 5,8 km/h (2 Bft) W-NW 302 0 min 1,1 C 0,8 C 17,7 km/h (3 Bft)
19.01.2022 20:30 2,4 C 90 % 1016,5 hPa 0,0 mm 7,7 km/h (2 Bft) N 360 0 min 0,9 C 0,2 C 19,3 km/h (3 Bft)
19.01.2022 20:15 2,4 C 90 % 1016,6 hPa 0,0 mm 10,1 km/h (2 Bft) N-NW 328 0 min 0,9 C -0,5 C 32,2 km/h (5 Bft)
19.01.2022 20:00 2,4 C 89 % 1016,5 hPa 0,0 mm 10,8 km/h (2 Bft) N-NW 346 0 min 0,8 C -0,6 C 25,7 km/h (4 Bft)
19.01.2022 19:45 2,7 C 87 % 1016,4 hPa 0,0 mm 12,9 km/h (3 Bft) N 5 0 min 0,8 C -0,7 C 27,4 km/h (4 Bft)
19.01.2022 19:30 2,9 C 85 % 1016,5 hPa 0,0 mm 10,8 km/h (2 Bft) N-NW 342 0 min 0,6 C -0,0 C 25,7 km/h (4 Bft)
19.01.2022 19:15 3,1 C 83 % 1016,5 hPa 0,0 mm 8,8 km/h (2 Bft) N 355 0 min 0,5 C 0,7 C 27,4 km/h (4 Bft)
19.01.2022 19:00 3,2 C 83 % 1016,7 hPa 0,0 mm 8,3 km/h (2 Bft) N-NW 333 0 min 0,6 C 0,9 C 24,1 km/h (4 Bft)
19.01.2022 18:45 3,2 C 82 % 1016,8 hPa 0,0 mm 11,0 km/h (2 Bft) N-NW 342 0 min 0,4 C 0,3 C 25,7 km/h (4 Bft)
19.01.2022 18:30 3,2 C 82 % 1016,8 hPa 0,0 mm 8,1 km/h (2 Bft) N-NO 14 0 min 0,4 C 1,0 C 22,5 km/h (4 Bft)
19.01.2022 18:15 3,2 C 82 % 1017,0 hPa 0,0 mm 3,7 km/h (1 Bft) N-NW 346 0 min 0,4 C 3,2 C 25,7 km/h (4 Bft)
19.01.2022 18:00 3,2 C 83 % 1017,3 hPa 0,0 mm 5,4 km/h (1 Bft) N-NO 13 0 min 0,6 C 1,9 C 17,7 km/h (3 Bft)
19.01.2022 17:45 3,2 C 82 % 1017,3 hPa 0,0 mm 7,0 km/h (2 Bft) NO 44 0 min 0,4 C 1,3 C 19,3 km/h (3 Bft)
19.01.2022 17:30 3,2 C 82 % 1017,4 hPa 0,0 mm 7,5 km/h (2 Bft) NO 36 0 min 0,4 C 1,2 C 19,3 km/h (3 Bft)
19.01.2022 17:15 3,3 C 82 % 1017,5 hPa 0,0 mm 9,5 km/h (2 Bft) N 360 0 min 0,5 C 0,7 C 25,7 km/h (4 Bft)
19.01.2022 17:00 3,3 C 81 % 1017,7 hPa 0,0 mm 8,6 km/h (2 Bft) NO 53 0 min 0,4 C 1,0 C 24,1 km/h (4 Bft)
19.01.2022 16:45 3,5 C 81 % 1017,8 hPa 0,0 mm 6,2 km/h (2 Bft) NO 55 0 min 0,6 C 1,9 C 22,5 km/h (4 Bft)
19.01.2022 16:30 3,6 C 80 % 1018,0 hPa 0,0 mm 5,1 km/h (1 Bft) NO 40 0 min 0,5 C 2,5 C 16,1 km/h (3 Bft)
19.01.2022 16:15 3,6 C 80 % 1018,2 hPa 0,0 mm 7,2 km/h (2 Bft) N 355 0 min 0,5 C 1,7 C 25,7 km/h (4 Bft)
19.01.2022 16:00 3,6 C 80 % 1018,0 hPa 0,0 mm 8,9 km/h (2 Bft) NW 313 0 min 0,5 C 1,3 C 24,1 km/h (4 Bft)
19.01.2022 15:45 3,6 C 80 % 1018,2 hPa 0,0 mm 5,7 km/h (1 Bft) N-NW 336 0 min 0,5 C 2,2 C 19,3 km/h (3 Bft)
19.01.2022 15:30 3,6 C 80 % 1018,5 hPa 0,0 mm 5,9 km/h (2 Bft) N 355 0 min 0,5 C 2,1 C 19,3 km/h (3 Bft)
19.01.2022 15:15 3,6 C 80 % 1018,8 hPa 0,0 mm 5,4 km/h (1 Bft) N 360 0 min 0,5 C 2,3 C 19,3 km/h (3 Bft)
19.01.2022 15:00 3,5 C 81 % 1019,1 hPa 0,0 mm 5,9 km/h (2 Bft) N-NO 28 0 min 0,6 C 2,0 C 16,1 km/h (3 Bft)
19.01.2022 14:45 3,5 C 81 % 1019,3 hPa 0,0 mm 5,5 km/h (1 Bft) N 11 0 min 0,6 C 2,2 C 19,3 km/h (3 Bft)
19.01.2022 14:30 3,4 C 81 % 1019,3 hPa 0,0 mm 8,3 km/h (2 Bft) N-NO 28 0 min 0,5 C 1,2 C 20,9 km/h (4 Bft)
19.01.2022 14:15 3,4 C 81 % 1019,5 hPa 0,0 mm 5,1 km/h (1 Bft) N-NW 340 0 min 0,5 C 2,2 C 25,7 km/h (4 Bft)
19.01.2022 14:00 3,4 C 82 % 1019,9 hPa 0,0 mm 7,2 km/h (2 Bft) NW 318 0 min 0,6 C 1,5 C 20,9 km/h (4 Bft)
19.01.2022 13:45 3,3 C 81 % 1020,1 hPa 0,0 mm 11,6 km/h (2 Bft) NW 318 0 min 0,4 C 0,3 C 30,6 km/h (5 Bft)
19.01.2022 13:30 3,3 C 82 % 1020,4 hPa 0,0 mm 12,9 km/h (3 Bft) NW 326 0 min 0,5 C 0,0 C 27,4 km/h (4 Bft)
19.01.2022 13:15 3,3 C 82 % 1020,7 hPa 0,0 mm 6,6 km/h (2 Bft) N-NW 348 0 min 0,5 C 1,6 C 20,9 km/h (4 Bft)
19.01.2022 13:00 3,3 C 82 % 1021,2 hPa 0,0 mm 9,4 km/h (2 Bft) N-NO 33 0 min 0,5 C 0,8 C 24,1 km/h (4 Bft)
19.01.2022 12:45 3,2 C 82 % 1021,6 hPa 0,0 mm 13,0 km/h (3 Bft) N 355 0 min 0,4 C -0,1 C 29,0 km/h (5 Bft)
19.01.2022 12:30 3,2 C 82 % 1021,8 hPa 0,0 mm 13,3 km/h (3 Bft) N-NO 26 0 min 0,4 C -0,2 C 29,0 km/h (5 Bft)
19.01.2022 12:15 3,2 C 82 % 1022,1 hPa 0,0 mm 13,5 km/h (3 Bft) N 360 0 min 0,4 C -0,2 C 30,6 km/h (5 Bft)
19.01.2022 12:00 3,2 C 82 % 1022,4 hPa 0,0 mm 12,4 km/h (3 Bft) N-NW 338 0 min 0,4 C -0,0 C 32,2 km/h (5 Bft)
19.01.2022 11:45 3,2 C 83 % 1022,7 hPa 0,0 mm 9,8 km/h (2 Bft) O-NO 61 0 min 0,6 C 0,6 C 29,0 km/h (5 Bft)
19.01.2022 11:30 3,3 C 84 % 1023,0 hPa 0,0 mm 4,7 km/h (1 Bft) N 355 0 min 0,9 C 2,3 C 19,3 km/h (3 Bft)
19.01.2022 11:15 3,3 C 85 % 1023,2 hPa 0,0 mm 5,9 km/h (2 Bft) N-NW 333 0 min 1,0 C 1,8 C 14,5 km/h (3 Bft)
19.01.2022 11:00 3,3 C 85 % 1023,3 hPa 0,0 mm 5,8 km/h (2 Bft) N-NW 327 0 min 1,0 C 1,8 C 17,7 km/h (3 Bft)
19.01.2022 10:45 3,3 C 86 % 1023,6 hPa 0,0 mm 4,9 km/h (1 Bft) W-NW 292 0 min 1,2 C 2,2 C 16,1 km/h (3 Bft)
19.01.2022 10:30 3,2 C 86 % 1023,8 hPa 0,0 mm 4,9 km/h (1 Bft) N 355 0 min 1,1 C 2,1 C 16,1 km/h (3 Bft)
19.01.2022 10:15 3,1 C 87 % 1023,9 hPa 0,0 mm 2,9 km/h (1 Bft) N-NW 346 0 min 1,2 C 3,1 C 14,5 km/h (3 Bft)
19.01.2022 10:00 3,0 C 87 % 1023,9 hPa 0,0 mm 5,7 km/h (1 Bft) N 349 0 min 1,1 C 1,5 C 19,3 km/h (3 Bft)
19.01.2022 09:45 2,9 C 88 % 1023,7 hPa 0,0 mm 5,8 km/h (2 Bft) N-NW 342 0 min 1,1 C 1,4 C 19,3 km/h (3 Bft)
19.01.2022 09:30 2,8 C 88 % 1024,1 hPa 0,0 mm 6,4 km/h (2 Bft) NW 309 0 min 1,0 C 1,1 C 22,5 km/h (4 Bft)
19.01.2022 09:15 2,7 C 88 % 1024,1 hPa 0,0 mm 5,9 km/h (2 Bft) N-NW 340 0 min 0,9 C 1,1 C 19,3 km/h (3 Bft)
19.01.2022 09:00 2,7 C 88 % 1024,3 hPa 0,0 mm 8,2 km/h (2 Bft) NW 317 0 min 0,9 C 0,4 C 17,7 km/h (3 Bft)
19.01.2022 08:45 2,7 C 88 % 1024,4 hPa 0,0 mm 6,6 km/h (2 Bft) W 276 0 min 0,9 C 0,9 C 17,7 km/h (3 Bft)
19.01.2022 08:30 2,6 C 89 % 1024,9 hPa 0,0 mm 6,0 km/h (2 Bft) N-NO 13 0 min 1,0 C 1,0 C 20,9 km/h (4 Bft)
19.01.2022 08:15 2,6 C 88 % 1025,2 hPa 0,0 mm 6,3 km/h (2 Bft) NW 304 0 min 0,8 C 0,9 C 19,3 km/h (3 Bft)
19.01.2022 08:00 2,6 C 88 % 1025,5 hPa 0,0 mm 9,1 km/h (2 Bft) N-NW 327 0 min 0,8 C 0,0 C 24,1 km/h (4 Bft)
19.01.2022 07:45 2,7 C 88 % 1026,0 hPa 0,0 mm 7,8 km/h (2 Bft) N 355 0 min 0,9 C 0,5 C 19,3 km/h (3 Bft)
19.01.2022 07:30 2,8 C 89 % 1026,3 hPa 0,0 mm 6,7 km/h (2 Bft) N-NW 327 0 min 1,2 C 1,0 C 19,3 km/h (3 Bft)
19.01.2022 07:15 2,8 C 89 % 1026,4 hPa 0,0 mm 5,4 km/h (1 Bft) NW 313 0 min 1,2 C 1,4 C 17,7 km/h (3 Bft)
19.01.2022 07:00 2,8 C 88 % 1026,6 hPa 0,0 mm 6,1 km/h (2 Bft) NW 317 0 min 1,0 C 1,2 C 16,1 km/h (3 Bft)
_ Min-Zeit 06:45 15:15 06:15 - 10:15 - - - 06:45 06:45 23:15
Minimum _ 1,8 C 80 % 1016,1 hPa - 2,9 km/h (1 Bft) - - - 0,2 C -2,7 C 12,9 km/h (3 Bft)
_ Max-Zeit 00:30 23:15 07:00 22:30 00:30 - - 07:00 00:00 04:00 06:45
Maximum _ 4,3 C 94 % 1026,6 hPa 0,3 mm 19,1 km/h
NO (3 Bft)
- - 0 min 3,1 C 3,4 C 41,8 km/h
O-SO (6 Bft)
Durchschnitt _ 3,1 C 86 % 1019,5 hPa #1,5 mm 7,9 km/h (2 Bft) N-NW - #0 min. 1,1 C 1,2 C 21,9 km/h (4 Bft)